Terminal Aerodrome Forecast
Issued by NWS Tallahassee, FL

Home | Current Version | Previous Version | Text Only | Print | Product List | Glossary On
Versions: 1 2 3 4 5 6 7 8 9 10 11 12 13 14 15 16 17 18
988
FTUS42 KTAE 281721
TAFTLH
TAF
KTLH 281721Z 2818/2918 10009KT P6SM VCTS BKN020CB BKN250
     FM281900 10008KT 3SM TSRA BKN035CB
     FM282200 10005KT P6SM VCTS SCT035 BKN050CB
     FM290100 09005KT P6SM SCT035 BKN050
     FM291400 14006KT P6SM VCSH SCT020 SCT050=

USA.gov is the U.S. government's official web portal to all federal, state and local government web resources and services.